Time;durP1;ratioP1;P1;durP2;ratioP2;P2;SDS_P1;SDS_P2;PMS_P1;PMS_P2;Temp;Humidity;BMP_temperature;BMP_pressure;BME280_temperature;BME280_humidity;BME280_pressure;Samples;Min_cycle;Max_cycle;Signal;HPM_P1;HPM_P2
2022/10/01 00:02:01;;;;;;;3.02;2.70;;;;;;;14.32;83.99;94532.14;1673827;85;20972;-59
2022/10/01 00:04:28;;;;;;;2.67;2.47;;;;;;;14.27;84.16;94527.25;1674145;84;21020;-61
2022/10/01 00:06:59;;;;;;;2.70;2.50;;;;;;;14.22;84.29;94525.91;1656176;85;21016;-59
2022/10/01 00:09:30;;;;;;;9.48;4.28;;;;;;;14.19;84.38;94524.72;1656778;85;21153;-61
2022/10/01 00:11:59;;;;;;;3.58;3.27;;;;;;;14.16;84.66;94524.30;1673627;85;20969;-60
2022/10/01 00:14:29;;;;;;;17.57;8.05;;;;;;;14.15;84.77;94518.59;1673612;84;21011;-60
2022/10/01 00:16:58;;;;;;;6.55;5.95;;;;;;;14.13;84.78;94521.04;1674309;85;20981;-61
2022/10/01 00:19:28;;;;;;;6.08;4.10;;;;;;;14.10;84.80;94509.55;1673646;85;21033;-61
2022/10/01 00:21:56;;;;;;;5.67;3.65;;;;;;;14.07;84.88;94511.88;1673937;85;21231;-60
2022/10/01 00:24:25;;;;;;;4.33;3.92;;;;;;;14.03;85.14;94518.23;1672723;84;21106;-60
2022/10/01 00:26:53;;;;;;;6.22;4.47;;;;;;;13.95;85.29;94519.81;1649624;85;21512;-60
2022/10/01 00:29:21;;;;;;;5.95;3.42;;;;;;;13.89;85.60;94529.41;1668783;86;21205;-61
2022/10/01 00:31:49;;;;;;;7.55;4.05;;;;;;;13.84;85.64;94526.53;1668358;86;20972;-61
2022/10/01 00:34:18;;;;;;;8.78;4.80;;;;;;;13.73;86.00;94525.70;1668283;84;21238;-60
2022/10/01 00:36:46;;;;;;;4.78;4.30;;;;;;;13.63;86.45;94535.28;1668198;86;21503;-61
2022/10/01 00:39:15;;;;;;;6.70;3.58;;;;;;;13.53;87.01;94525.53;1668220;84;21584;-59
2022/10/01 00:41:42;;;;;;;4.25;3.77;;;;;;;13.37;87.39;94529.31;1668556;84;21036;-60
2022/10/01 00:44:33;;;;;;;4.60;4.15;;;;;;;13.28;88.00;94528.00;1668263;86;21071;-60
2022/10/01 00:47:25;;;;;;;4.50;3.72;;;;;;;13.22;88.12;94525.11;1668281;86;21809;-61
2022/10/01 00:49:58;;;;;;;5.65;4.17;;;;;;;13.12;88.27;94535.30;1668163;86;21064;-60
2022/10/01 00:52:29;;;;;;;8.35;3.58;;;;;;;13.04;88.82;94535.50;1649779;86;21015;-60
2022/10/01 00:55:02;;;;;;;5.22;3.47;;;;;;;12.99;89.08;94538.27;1668382;86;21027;-60
2022/10/01 00:57:30;;;;;;;4.60;3.47;;;;;;;13.00;89.47;94539.02;1668596;86;21465;-61
2022/10/01 00:59:59;;;;;;;4.35;3.65;;;;;;;12.96;89.35;94538.44;1668410;84;22405;-59
2022/10/01 01:02:27;;;;;;;4.50;4.10;;;;;;;12.90;89.59;94538.27;1668340;84;20973;-60
2022/10/01 01:04:55;;;;;;;5.47;4.35;;;;;;;12.85;89.82;94533.99;1668306;86;21036;-60
2022/10/01 01:07:24;;;;;;;7.92;5.08;;;;;;;12.82;90.15;94539.06;1668341;86;21016;-61
2022/10/01 01:09:52;;;;;;;9.85;4.37;;;;;;;12.80;90.76;94538.77;1668277;86;21095;-60
2022/10/01 01:12:34;;;;;;;4.85;4.35;;;;;;;12.81;90.54;94530.04;1668448;86;21168;-60
2022/10/01 01:15:22;;;;;;;4.20;3.83;;;;;;;12.76;90.59;94518.86;1661017;84;21164;-60
2022/10/01 01:18:15;;;;;;;6.15;5.05;;;;;;;12.76;90.89;94523.00;1608348;87;21001;-60
2022/10/01 01:21:05;;;;;;;10.35;5.20;;;;;;;12.73;90.89;94521.92;1623003;85;21520;-60
2022/10/01 01:23:58;;;;;;;3.95;3.55;;;;;;;12.70;91.02;94520.73;1668237;84;21060;-61
2022/10/01 01:26:43;;;;;;;12.05;4.65;;;;;;;12.66;91.16;94515.97;1672907;84;21257;-60
2022/10/01 01:29:24;;;;;;;6.58;4.28;;;;;;;12.62;91.20;94515.38;1673556;84;21011;-60
2022/10/01 01:31:54;;;;;;;12.68;4.15;;;;;;;12.58;91.57;94509.27;1673658;84;21075;-59
2022/10/01 01:34:28;;;;;;;5.08;4.47;;;;;;;12.55;91.49;94502.67;1673918;84;21099;-60
2022/10/01 01:37:00;;;;;;;10.58;4.25;;;;;;;12.49;91.56;94507.16;1673673;85;20971;-60
2022/10/01 01:39:31;;;;;;;5.80;4.65;;;;;;;12.43;92.11;94519.42;1673846;84;21928;-60
2022/10/01 01:42:04;;;;;;;14.25;6.45;;;;;;;12.39;92.25;94521.59;1673443;85;21445;-59
2022/10/01 01:44:37;;;;;;;13.00;7.12;;;;;;;12.28;92.61;94506.75;1673662;84;21099;-60
2022/10/01 01:47:06;;;;;;;16.05;7.60;;;;;;;12.23;92.84;94512.27;1673886;84;28333;-59
2022/10/01 01:49:37;;;;;;;14.43;5.97;;;;;;;12.19;92.99;94525.47;1673582;84;21567;-60
2022/10/01 01:52:12;;;;;;;10.53;6.40;;;;;;;12.17;93.28;94530.69;1674011;85;21195;-59
2022/10/01 01:54:41;;;;;;;9.90;6.22;;;;;;;12.17;93.81;94527.92;1673465;84;21202;-61
2022/10/01 01:57:08;;;;;;;10.93;5.30;;;;;;;12.23;94.08;94534.97;1673715;84;20993;-61
2022/10/01 01:59:37;;;;;;;9.75;5.55;;;;;;;12.24;93.85;94526.22;1656064;85;21524;-60
2022/10/01 02:02:06;;;;;;;8.18;4.83;;;;;;;12.22;93.65;94527.89;1673692;85;21063;-60
2022/10/01 02:04:41;;;;;;;7.03;4.12;;;;;;;12.22;93.62;94535.57;1673574;84;21247;-60
2022/10/01 02:07:41;;;;;;;7.72;5.35;;;;;;;12.20;93.38;94535.87;1673483;85;21016;-60
2022/10/01 02:10:37;;;;;;;9.03;5.00;;;;;;;12.12;93.58;94529.90;1673643;85;21019;-59
2022/10/01 02:13:46;;;;;;;5.62;4.37;;;;;;;12.08;93.79;94534.81;1673468;85;21031;-60
2022/10/01 02:16:29;;;;;;;6.70;4.47;;;;;;;12.06;94.11;94533.14;1673087;85;21515;-59
2022/10/01 02:19:25;;;;;;;4.65;4.00;;;;;;;12.06;94.26;94542.78;1673526;85;21266;-60
2022/10/01 02:21:58;;;;;;;7.42;4.85;;;;;;;12.05;94.48;94545.39;1673539;84;21024;-60
2022/10/01 02:24:52;;;;;;;;;;;;;;;12.09;94.61;94550.13;1676395;84;20984;-60
2022/10/01 02:27:22;;;;;;;;;;;;;;;12.05;94.51;94546.77;1676101;85;20092;-59
2022/10/01 02:29:49;;;;;;;13.70;4.53;;;;;;;12.00;95.02;94532.23;1673592;84;20447;-59
2022/10/01 02:32:18;;;;;;;5.53;4.62;;;;;;;12.03;95.15;94550.61;1673613;85;21293;-59
2022/10/01 02:34:47;;;;;;;11.00;5.25;;;;;;;12.04;95.07;94561.78;1673908;84;21044;-59
2022/10/01 02:37:14;;;;;;;9.45;5.42;;;;;;;11.97;94.96;94547.55;1673513;85;21023;-60
2022/10/01 02:39:42;;;;;;;8.40;5.65;;;;;;;11.94;95.19;94541.58;1673518;84;21075;-59
2022/10/01 02:42:13;;;;;;;6.70;5.33;;;;;;;11.96;95.49;94561.95;1673642;84;21563;-60
2022/10/01 02:44:41;;;;;;;9.53;5.67;;;;;;;11.93;95.36;94539.42;1673874;84;21151;-61
2022/10/01 02:47:22;;;;;;;7.47;5.33;;;;;;;11.96;95.80;94556.44;1673495;84;20997;-61
2022/10/01 02:49:50;;;;;;;10.25;6.80;;;;;;;12.05;96.15;94556.42;1673626;85;21028;-60
2022/10/01 02:52:49;;;;;;;7.45;5.20;;;;;;;12.10;95.79;94534.37;1673576;85;21464;-62
2022/10/01 02:55:23;;;;;;;6.15;5.55;;;;;;;12.14;95.63;94528.08;1673767;84;21007;-60
2022/10/01 02:57:51;;;;;;;10.28;6.20;;;;;;;12.19;95.48;94529.60;1673936;84;22274;-61
2022/10/01 03:00:25;;;;;;;7.22;6.45;;;;;;;12.20;95.21;94521.48;1673912;84;20966;-63
2022/10/01 03:02:50;;;;;;;11.68;7.22;;;;;;;12.19;94.76;94524.69;1672804;85;20968;-62
2022/10/01 03:05:17;;;;;;;10.80;7.08;;;;;;;12.15;94.54;94529.00;1673983;85;20981;-61
2022/10/01 03:07:46;;;;;;;12.18;7.12;;;;;;;12.08;94.50;94530.68;1656468;85;20968;-62
2022/10/01 03:10:15;;;;;;;7.58;5.70;;;;;;;12.02;94.64;94521.51;1673679;85;21159;-60
2022/10/01 03:12:45;;;;;;;10.08;6.45;;;;;;;12.01;94.94;94518.59;1656397;85;21031;-62
2022/10/01 03:15:14;;;;;;;14.63;7.25;;;;;;;11.99;94.92;94511.41;1673928;84;21004;-60
2022/10/01 03:17:43;;;;;;;11.35;7.33;;;;;;;11.97;95.05;94513.86;1673647;84;21054;-60
2022/10/01 03:20:11;;;;;;;10.53;7.08;;;;;;;11.96;94.97;94518.45;1673765;84;21035;-60
2022/10/01 03:22:39;;;;;;;9.90;6.22;;;;;;;11.95;95.05;94510.80;1656940;85;21280;-63
2022/10/01 03:25:08;;;;;;;9.00;5.40;;;;;;;11.93;94.97;94511.10;1673874;84;20973;-61
2022/10/01 03:27:37;;;;;;;6.08;5.33;;;;;;;11.96;95.04;94512.33;1673713;84;21032;-61
2022/10/01 03:30:07;;;;;;;12.05;5.92;;;;;;;11.94;94.98;94507.87;1673951;84;21019;-61
2022/10/01 03:32:35;;;;;;;8.95;6.78;;;;;;;11.93;95.07;94504.96;1673652;84;21724;-60
2022/10/01 03:35:03;;;;;;;7.30;6.15;;;;;;;11.91;95.00;94505.28;1656610;85;21872;-61
2022/10/01 03:37:32;;;;;;;7.72;6.45;;;;;;;11.87;95.19;94525.36;1673650;84;20956;-61
2022/10/01 03:40:00;;;;;;;11.57;6.25;;;;;;;11.79;94.70;94528.25;1673927;85;20976;-63
2022/10/01 03:42:28;;;;;;;24.72;7.17;;;;;;;11.66;95.05;94522.91;1673651;84;21004;-61
2022/10/01 03:44:57;;;;;;;8.83;7.22;;;;;;;11.64;95.39;94533.62;1674034;84;21451;-61
2022/10/01 03:47:26;;;;;;;10.10;6.90;;;;;;;11.66;95.67;94529.79;1673713;84;21294;-61
2022/10/01 03:49:54;;;;;;;13.83;6.95;;;;;;;11.67;95.75;94529.16;1673590;84;21016;-60
2022/10/01 03:52:22;;;;;;;13.08;6.80;;;;;;;11.72;96.11;94532.08;1673615;84;21071;-60
2022/10/01 03:54:49;;;;;;;9.55;5.67;;;;;;;11.78;95.74;94541.28;1673903;84;20976;-63
2022/10/01 03:57:18;;;;;;;13.32;6.20;;;;;;;11.84;95.63;94541.41;1673642;85;21511;-62
2022/10/01 03:59:47;;;;;;;11.60;6.72;;;;;;;11.83;95.38;94540.66;1673671;85;21224;-61
2022/10/01 04:02:14;;;;;;;16.50;6.70;;;;;;;11.83;95.59;94539.28;1673598;85;21060;-60
2022/10/01 04:04:43;;;;;;;16.37;7.40;;;;;;;11.83;95.53;94537.13;1673621;85;21035;-60
2022/10/01 04:07:11;;;;;;;12.55;7.33;;;;;;;11.90;95.97;94537.59;1673713;85;21415;-60
2022/10/01 04:09:40;;;;;;;8.88;7.50;;;;;;;11.99;96.17;94529.92;1673753;85;21448;-60
2022/10/01 04:12:08;;;;;;;8.58;6.92;;;;;;;12.07;95.70;94541.56;1673617;84;21136;-60
2022/10/01 04:14:38;;;;;;;8.30;6.05;;;;;;;12.13;95.83;94535.59;1673603;85;21503;-60
2022/10/01 04:17:05;;;;;;;16.10;6.40;;;;;;;12.21;95.62;94538.77;1673611;85;20999;-60
2022/10/01 04:19:33;;;;;;;22.32;7.03;;;;;;;12.29;95.63;94531.73;1679039;84;21145;-60
2022/10/01 04:22:01;;;;;;;8.85;6.70;;;;;;;12.35;94.87;94537.55;1673745;84;21456;-60
2022/10/01 04:24:28;;;;;;;12.10;6.78;;;;;;;12.36;94.49;94544.59;1673661;84;21153;-59
2022/10/01 04:26:57;;;;;;;14.58;6.60;;;;;;;12.31;94.09;94549.36;1688427;83;20964;-59
2022/10/01 04:29:24;;;;;;;15.78;6.12;;;;;;;12.24;93.78;94553.80;1693597;84;21008;-60
2022/10/01 04:31:52;;;;;;;7.05;5.30;;;;;;;12.20;94.05;94557.94;1693410;84;21059;-60
2022/10/01 04:34:51;;;;;;;12.25;6.60;;;;;;;12.23;94.38;94551.52;1693622;84;21452;-60
2022/10/01 04:36:49;;;;;;;9.98;6.20;;;;;;;12.22;94.21;94554.88;1689736;84;21328;-60
2022/10/01 04:39:18;;;;;;;29.92;6.85;;;;;;;12.20;94.49;94566.98;1693266;83;21515;-60
2022/10/01 04:41:46;;;;;;;14.75;5.85;;;;;;;12.19;94.44;94579.24;1693394;84;21076;-59
2022/10/01 04:44:14;;;;;;;15.83;7.50;;;;;;;12.17;94.55;94577.56;1693536;84;21060;-60
2022/10/01 04:46:43;;;;;;;12.88;8.10;;;;;;;12.18;94.45;94572.20;1693325;84;20968;-61
2022/10/01 04:49:10;;;;;;;14.43;8.38;;;;;;;12.14;94.42;94555.05;1693409;84;21786;-59
2022/10/01 04:51:38;;;;;;;11.48;7.55;;;;;;;12.14;94.83;94552.30;1693395;83;21432;-59
2022/10/01 04:54:06;;;;;;;12.18;6.70;;;;;;;12.22;95.28;94554.88;1693457;83;21456;-61
2022/10/01 04:56:34;;;;;;;14.95;6.47;;;;;;;12.32;95.06;94555.62;1669469;84;21060;-60
2022/10/01 04:59:02;;;;;;;13.08;6.62;;;;;;;12.40;94.89;94549.92;1693324;84;21162;-59
2022/10/01 05:01:31;;;;;;;15.93;7.10;;;;;;;12.49;94.53;94557.57;1693298;84;21158;-60
2022/10/01 05:03:59;;;;;;;12.50;6.47;;;;;;;12.55;94.15;94548.20;1669878;83;20976;-62
2022/10/01 05:06:29;;;;;;;15.48;6.67;;;;;;;12.58;93.76;94542.38;1693681;84;21078;-61
2022/10/01 05:08:56;;;;;;;19.77;7.20;;;;;;;12.60;93.61;94551.73;1693696;84;21063;-61
2022/10/01 05:11:24;;;;;;;16.32;6.70;;;;;;;12.67;93.57;94550.62;1693420;84;21039;-61
2022/10/01 05:13:53;;;;;;;15.58;6.97;;;;;;;12.72;93.14;94548.63;1693853;84;21164;-62
2022/10/01 05:16:21;;;;;;;10.05;7.37;;;;;;;12.72;92.99;94537.59;1693238;83;20972;-62
2022/10/01 05:18:49;;;;;;;11.68;8.03;;;;;;;12.74;93.00;94550.31;1693253;84;20972;-61
2022/10/01 05:21:18;;;;;;;12.20;7.15;;;;;;;12.75;92.72;94551.84;1693282;84;21028;-61
2022/10/01 05:23:45;;;;;;;22.62;9.58;;;;;;;12.67;92.40;94561.66;1693580;84;21004;-62
2022/10/01 05:26:14;;;;;;;15.98;9.43;;;;;;;12.57;92.41;94560.17;1693193;84;21156;-62
2022/10/01 05:28:43;;;;;;;22.05;10.08;;;;;;;12.57;93.11;94554.66;1693329;83;21099;-61
2022/10/01 05:31:11;;;;;;;24.72;11.15;;;;;;;12.61;93.21;94560.16;1693583;84;20988;-61
2022/10/01 05:33:41;;;;;;;16.87;10.68;;;;;;;12.68;93.28;94561.84;1693319;84;20995;-62
2022/10/01 05:36:08;;;;;;;15.23;9.45;;;;;;;12.72;93.08;94561.05;1693548;84;21455;-61
2022/10/01 05:38:36;;;;;;;15.75;10.28;;;;;;;12.75;92.74;94551.84;1669582;84;21108;-61
2022/10/01 05:41:06;;;;;;;21.07;10.20;;;;;;;12.81;92.70;94556.27;1693398;84;21015;-61
2022/10/01 05:43:35;;;;;;;22.80;10.28;;;;;;;12.89;92.70;94556.07;1693177;84;21568;-63
2022/10/01 05:46:04;;;;;;;16.40;10.85;;;;;;;12.98;92.07;94555.30;1693569;84;21563;-60
2022/10/01 05:48:35;;;;;;;19.67;15.20;;;;;;;13.01;91.97;94554.36;1693406;84;20996;-62
2022/10/01 05:51:05;;;;;;;31.45;18.57;;;;;;;13.04;91.56;94563.87;1693165;83;21240;-61
2022/10/01 05:53:31;;;;;;;28.00;17.37;;;;;;;13.07;91.41;94553.89;1692969;83;20988;-60
2022/10/01 05:56:01;;;;;;;19.90;13.35;;;;;;;13.15;91.90;94552.30;1693653;83;20968;-61
2022/10/01 05:58:29;;;;;;;21.87;14.68;;;;;;;13.25;91.40;94567.62;1669270;84;21607;-60
2022/10/01 06:00:56;;;;;;;24.98;12.58;;;;;;;13.31;90.64;94558.83;1660314;84;21513;-61
2022/10/01 06:03:27;;;;;;;20.23;12.37;;;;;;;13.28;90.23;94567.42;1693208;84;21515;-60
2022/10/01 06:05:53;;;;;;;40.23;12.58;;;;;;;13.28;90.22;94557.00;1693097;84;21028;-60
2022/10/01 06:08:28;;;;;;;20.55;12.70;;;;;;;13.33;90.31;94547.46;1693148;83;21012;-60
2022/10/01 06:11:01;;;;;;;26.50;15.05;;;;;;;13.41;90.12;94549.27;1693420;84;21250;-60
2022/10/01 06:13:29;;;;;;;22.37;13.00;;;;;;;13.45;89.77;94546.45;1692612;83;21059;-60
2022/10/01 06:15:58;;;;;;;20.95;12.73;;;;;;;13.49;89.62;94551.18;1669367;84;21164;-66
2022/10/01 06:18:26;;;;;;;24.90;13.32;;;;;;;13.56;89.47;94549.46;1669271;84;21024;-66
2022/10/01 06:20:56;;;;;;;30.20;9.78;;;;;;;13.68;89.46;94543.55;1692733;84;21094;-66
2022/10/01 06:23:24;;;;;;;18.15;8.93;;;;;;;13.82;88.99;94543.58;1669036;83;21019;-66
2022/10/01 06:25:53;;;;;;;27.35;10.72;;;;;;;13.94;88.94;94549.48;1693463;83;21067;-66
2022/10/01 06:28:21;;;;;;;35.73;16.02;;;;;;;14.05;88.49;94538.66;1673698;84;21111;-64
2022/10/01 06:30:49;;;;;;;22.07;11.63;;;;;;;14.12;87.97;94537.50;1673565;85;21024;-61
2022/10/01 06:33:16;;;;;;;26.33;11.97;;;;;;;14.22;87.23;94525.91;1673569;85;21060;-62
2022/10/01 06:35:47;;;;;;;18.82;10.58;;;;;;;14.35;86.95;94525.65;1673600;84;21527;-61
2022/10/01 06:38:16;;;;;;;28.12;10.90;;;;;;;14.46;85.87;94521.81;1673529;85;20976;-62
2022/10/01 06:40:44;;;;;;;15.95;9.00;;;;;;;14.57;85.26;94509.56;1673665;85;21251;-62
2022/10/01 06:43:12;;;;;;;7.83;5.83;;;;;;;14.68;84.72;94513.91;1673344;85;20963;-61
2022/10/01 06:45:41;;;;;;;10.63;6.00;;;;;;;14.74;84.22;94516.14;1673477;84;20983;-63
2022/10/01 06:48:13;;;;;;;11.50;6.72;;;;;;;14.83;83.74;94519.42;1673803;84;21027;-64
2022/10/01 06:50:43;;;;;;;18.27;7.47;;;;;;;14.94;83.55;94514.81;1677919;84;21035;-64
2022/10/01 06:53:11;;;;;;;10.65;6.50;;;;;;;15.08;83.33;94512.64;1673572;85;21194;-60
2022/10/01 06:55:39;;;;;;;36.75;30.12;;;;;;;15.17;82.53;94517.30;1673542;84;20981;-62
2022/10/01 06:58:19;;;;;;;13.48;9.40;;;;;;;15.27;82.34;94509.77;1673911;85;21024;-62
2022/10/01 07:00:48;;;;;;;11.70;8.40;;;;;;;15.34;81.71;94510.77;1656445;85;20989;-61
2022/10/01 07:03:19;;;;;;;21.12;9.80;;;;;;;15.42;81.34;94506.36;1679136;84;21020;-62
2022/10/01 07:05:48;;;;;;;12.82;8.88;;;;;;;15.53;81.00;94496.04;1648446;85;21157;-63
2022/10/01 07:08:16;;;;;;;23.87;16.07;;;;;;;15.51;80.50;94508.98;1619306;88;21036;-60
2022/10/01 07:10:46;;;;;;;20.02;11.50;;;;;;;15.47;80.29;94507.05;1656699;86;21151;-62
2022/10/01 07:13:19;;;;;;;17.67;9.23;;;;;;;15.45;80.63;94501.84;1656652;86;21342;-64
2022/10/01 07:15:46;;;;;;;;;;;;;;;15.50;80.52;94500.53;1659598;86;21037;-64
2022/10/01 07:18:15;;;;;;;21.10;8.40;;;;;;;15.54;79.69;94506.63;1656790;86;21255;-63
2022/10/01 07:20:43;;;;;;;24.60;12.65;;;;;;;15.52;79.44;94491.10;1656723;86;21068;-65
2022/10/01 07:23:12;;;;;;;15.75;10.10;;;;;;;15.52;79.91;94488.97;1632408;86;21075;-62
2022/10/01 07:25:42;;;;;;;12.95;9.73;;;;;;;15.65;80.03;94496.30;1632600;86;21491;-62
2022/10/01 07:28:16;;;;;;;21.05;10.75;;;;;;;15.77;79.53;94495.95;1642155;86;21101;-61
2022/10/01 07:31:00;;;;;;;19.52;8.25;;;;;;;15.85;78.99;94492.91;1638260;86;21764;-61
2022/10/01 07:33:29;;;;;;;46.00;24.82;;;;;;;15.90;78.67;94502.55;1637689;87;20995;-61
2022/10/01 07:36:03;;;;;;;35.88;18.48;;;;;;;15.92;78.56;94488.31;1641127;87;20953;-62
2022/10/01 07:38:33;;;;;;;42.00;13.20;;;;;;;15.99;78.55;94483.73;1613432;87;21014;-61
2022/10/01 07:41:01;;;;;;;34.65;14.18;;;;;;;16.04;78.11;94489.97;1640966;87;21002;-61
2022/10/01 07:43:30;;;;;;;27.25;10.25;;;;;;;16.07;78.23;94484.82;1640794;86;21258;-61
2022/10/01 07:45:58;;;;;;;18.82;10.25;;;;;;;16.14;78.09;94491.96;1640822;86;21498;-61
2022/10/01 07:48:27;;;;;;;44.10;10.88;;;;;;;16.16;78.13;94490.23;1613472;87;21079;-61
2022/10/01 07:50:56;;;;;;;19.65;8.23;;;;;;;16.17;78.28;94485.42;1640762;87;21073;-61
2022/10/01 07:53:24;;;;;;;23.30;10.05;;;;;;;16.22;78.27;94475.00;1640970;87;21577;-62
2022/10/01 07:55:53;;;;;;;13.13;9.15;;;;;;;16.29;78.11;94471.16;1640815;87;21393;-62
2022/10/01 07:58:22;;;;;;;20.23;8.55;;;;;;;16.36;77.97;94470.13;1613188;87;20982;-61
2022/10/01 08:00:57;;;;;;;23.73;7.37;;;;;;;16.43;77.85;94467.55;1613049;87;21171;-62
2022/10/01 08:03:20;;;;;;;45.80;10.15;;;;;;;16.51;77.58;94464.48;1640061;87;21014;-61
2022/10/01 08:05:48;;;;;;;22.15;7.10;;;;;;;16.57;77.47;94463.89;1640861;87;21538;-63
2022/10/01 08:08:16;;;;;;;20.77;8.73;;;;;;;16.61;76.98;94470.75;1640784;87;21272;-61
2022/10/01 08:10:44;;;;;;;21.65;8.65;;;;;;;16.65;77.19;94470.52;1640949;87;21566;-63
2022/10/01 08:13:14;;;;;;;17.55;7.10;;;;;;;16.71;77.08;94476.89;1640905;87;21085;-64
2022/10/01 08:15:45;;;;;;;14.53;6.83;;;;;;;16.74;77.07;94471.73;1640988;87;21093;-65
2022/10/01 08:18:13;;;;;;;8.55;5.72;;;;;;;16.78;77.11;94475.05;1640689;87;20986;-65
2022/10/01 08:20:40;;;;;;;15.58;6.85;;;;;;;16.86;77.09;94458.05;1640738;86;21475;-64
2022/10/01 08:23:10;;;;;;;14.70;5.95;;;;;;;16.98;76.69;94456.88;1641027;87;20986;-64
2022/10/01 08:25:38;;;;;;;28.35;7.72;;;;;;;17.18;76.51;94467.87;1641135;87;21470;-64
2022/10/01 08:28:08;;;;;;;30.17;5.97;;;;;;;17.31;76.36;94457.84;1640702;86;21039;-63
2022/10/01 08:30:40;;;;;;;11.70;6.62;;;;;;;17.44;75.04;94456.80;1613389;87;21101;-64
2022/10/01 08:33:11;;;;;;;8.15;5.80;;;;;;;17.53;74.76;94462.17;1640975;87;21260;-63
2022/10/01 08:35:39;;;;;;;18.62;6.45;;;;;;;17.58;74.49;94460.05;1613813;87;20994;-63
2022/10/01 08:38:08;;;;;;;23.10;6.65;;;;;;;17.64;74.27;94462.20;1640866;87;21502;-60
2022/10/01 08:40:45;;;;;;;16.37;6.92;;;;;;;17.73;73.73;94452.89;1613156;87;21210;-60
2022/10/01 08:43:31;;;;;;;19.95;6.25;;;;;;;17.84;73.08;94454.34;1640848;86;21035;-61
2022/10/01 08:46:03;;;;;;;11.38;5.70;;;;;;;18.02;73.18;94456.67;1613057;87;21241;-60
2022/10/01 08:49:12;;;;;;;17.80;6.70;;;;;;;18.22;72.17;94458.60;1608050;87;21018;-60
2022/10/01 08:51:51;;;;;;;17.30;6.35;;;;;;;18.42;72.17;94450.83;1640862;87;21029;-62
2022/10/01 08:54:33;;;;;;;5.75;4.87;;;;;;;18.75;70.92;94438.94;1640871;87;21464;-60
2022/10/01 08:57:03;;;;;;;11.10;5.60;;;;;;;19.01;70.13;94441.58;1641005;87;21140;-60
2022/10/01 08:59:49;;;;;;;6.20;4.97;;;;;;;19.21;68.98;94444.77;1640691;86;21241;-61
2022/10/01 09:02:27;;;;;;;31.65;6.85;;;;;;;19.43;68.97;94439.13;1634786;87;21086;-65
2022/10/01 09:04:59;;;;;;;13.32;6.33;;;;;;;19.72;68.86;94437.14;1640839;87;21086;-62
2022/10/01 09:07:59;;;;;;;16.17;6.07;;;;;;;19.98;69.10;94449.47;1641088;87;21030;-60
2022/10/01 09:10:47;;;;;;;15.18;5.40;;;;;;;20.25;68.09;94442.98;1640866;87;21490;-60
2022/10/01 09:13:42;;;;;;;20.60;5.12;;;;;;;20.43;65.71;94439.58;1613891;87;21111;-61
2022/10/01 09:16:33;;;;;;;9.68;4.83;;;;;;;20.57;64.56;94439.88;1640503;87;22818;-61
2022/10/01 09:19:40;;;;;;;19.45;5.37;;;;;;;20.73;63.45;94434.80;1618965;87;21058;-60
2022/10/01 09:22:18;;;;;;;25.25;5.85;;;;;;;20.84;62.29;94437.52;1640783;87;21076;-63
2022/10/01 09:25:00;;;;;;;17.30;5.28;;;;;;;20.89;62.07;94429.74;1640759;86;21046;-62
2022/10/01 09:27:29;;;;;;;9.63;3.65;;;;;;;20.88;61.96;94432.39;1644757;86;22146;-60
2022/10/01 09:30:08;;;;;;;11.12;4.30;;;;;;;20.86;60.86;94432.93;1660524;86;21105;-60
2022/10/01 09:32:54;;;;;;;8.05;3.95;;;;;;;20.88;60.44;94436.59;1660181;86;21127;-61
2022/10/01 09:35:55;;;;;;;15.28;5.60;;;;;;;20.84;59.87;94433.32;1660729;86;21421;-62
2022/10/01 09:38:38;;;;;;;7.00;3.77;;;;;;;20.80;59.62;94434.22;1660573;86;21079;-60
2022/10/01 09:41:09;;;;;;;12.98;4.80;;;;;;;20.80;59.11;94441.22;1660372;86;21449;-61
2022/10/01 09:43:41;;;;;;;6.62;3.75;;;;;;;20.77;59.10;94430.42;1660365;85;21619;-60
2022/10/01 09:46:15;;;;;;;7.45;4.42;;;;;;;20.73;59.18;94426.41;1661274;85;21020;-62
2022/10/01 09:49:20;;;;;;;11.85;4.50;;;;;;;20.67;59.55;94427.08;1658264;86;21092;-62
2022/10/01 09:51:54;;;;;;;9.10;4.75;;;;;;;20.56;59.17;94428.57;1636440;86;21112;-62
2022/10/01 09:54:34;;;;;;;12.13;4.53;;;;;;;20.45;59.73;94431.43;1660370;86;21472;-61
2022/10/01 09:57:11;;;;;;;10.38;4.17;;;;;;;20.39;59.84;94429.33;1660788;86;21101;-60
2022/10/01 10:00:11;;;;;;;9.15;5.03;;;;;;;20.33;59.45;94435.56;1660418;85;20988;-61
2022/10/01 10:02:44;;;;;;;9.45;3.87;;;;;;;20.31;59.67;94440.91;1660599;86;21044;-61
2022/10/01 10:05:20;;;;;;;24.92;9.83;;;;;;;20.24;59.56;94424.71;1660526;86;21051;-59
2022/10/01 10:08:13;;;;;;;11.40;5.45;;;;;;;20.18;59.68;94435.91;1637360;86;21281;-60
2022/10/01 10:10:50;;;;;;;12.60;8.90;;;;;;;20.12;59.47;94431.63;1660571;86;21044;-59
2022/10/01 10:13:37;;;;;;;8.43;4.03;;;;;;;20.03;59.27;94437.53;1660426;86;21465;-61
2022/10/01 10:16:24;;;;;;;20.55;8.93;;;;;;;19.98;59.39;94437.52;1660581;85;21072;-60
2022/10/01 10:18:53;;;;;;;11.05;5.05;;;;;;;19.90;59.38;94423.34;1659775;86;20995;-60
2022/10/01 10:21:21;;;;;;;9.40;3.80;;;;;;;19.85;58.75;94425.53;1659560;86;22054;-64
2022/10/01 10:23:58;;;;;;;7.67;4.30;;;;;;;19.79;58.77;94419.84;1637237;86;20992;-61
2022/10/01 10:26:41;;;;;;;8.78;4.30;;;;;;;19.70;58.93;94420.15;1659366;86;21031;-61
2022/10/01 10:29:13;;;;;;;7.37;3.83;;;;;;;19.64;58.67;94417.38;1623257;86;21009;-61
2022/10/01 10:31:46;;;;;;;6.37;3.47;;;;;;;19.61;59.10;94411.43;1622767;87;21000;-60
2022/10/01 10:34:21;;;;;;;6.30;4.22;;;;;;;19.93;58.72;94402.02;1648606;85;21754;-60
2022/10/01 10:36:52;;;;;;;10.48;4.12;;;;;;;20.53;58.25;94391.87;1648177;86;21018;-59
2022/10/01 10:39:28;;;;;;;7.62;4.80;;;;;;;21.08;56.25;94390.77;1626151;87;21008;-61
2022/10/01 10:41:56;;;;;;;4.83;2.70;;;;;;;21.26;56.14;94397.73;1648740;87;21142;-60
2022/10/01 10:44:26;;;;;;;7.70;3.20;;;;;;;21.50;55.50;94395.66;1626408;87;21570;-61
2022/10/01 10:46:57;;;;;;;6.22;4.97;;;;;;;21.65;55.20;94394.62;1648265;85;21859;-60
2022/10/01 10:49:35;;;;;;;12.73;6.53;;;;;;;21.61;55.08;94403.16;1626925;87;21040;-60
2022/10/01 10:52:04;;;;;;;11.20;4.28;;;;;;;21.42;55.59;94399.56;1648062;85;21576;-61
2022/10/01 10:54:38;;;;;;;9.40;4.50;;;;;;;21.40;55.65;94387.52;1648360;87;21033;-61
2022/10/01 10:57:20;;;;;;;6.83;3.80;;;;;;;21.38;55.47;94388.69;1648352;86;21076;-60
2022/10/01 11:00:05;;;;;;;8.68;4.00;;;;;;;21.29;55.83;94384.08;1648737;87;21127;-60
2022/10/01 11:02:34;;;;;;;7.58;4.00;;;;;;;21.16;56.22;94385.35;1648191;87;21058;-60
2022/10/01 11:05:06;;;;;;;9.68;4.25;;;;;;;21.00;56.76;94376.48;1648448;87;21001;-61
2022/10/01 11:07:35;;;;;;;7.70;3.83;;;;;;;20.83;57.39;94387.03;1626161;87;21072;-61
2022/10/01 11:10:48;;;;;;;9.60;4.97;;;;;;;20.69;58.10;94383.34;1648263;85;21063;-59
2022/10/01 11:13:42;;;;;;;30.30;5.10;;;;;;;20.54;58.73;94375.23;1648386;87;21142;-61
2022/10/01 11:16:49;;;;;;;23.85;5.67;;;;;;;20.38;59.37;94370.52;1648552;87;21533;-62
2022/10/01 11:19:28;;;;;;;34.23;5.85;;;;;;;20.24;60.03;94368.84;1648409;86;21128;-62
2022/10/01 11:22:30;;;;;;;8.20;4.97;;;;;;;20.08;60.82;94364.11;1648408;85;21089;-61
2022/10/01 11:25:18;;;;;;;9.75;3.83;;;;;;;20.02;61.12;94356.42;1648429;87;21024;-59
2022/10/01 11:28:00;;;;;;;7.20;4.08;;;;;;;19.99;61.12;94363.64;1627630;85;21141;-61
2022/10/01 11:30:35;;;;;;;15.23;5.30;;;;;;;19.94;61.50;94361.64;1657302;86;21445;-60
2022/10/01 11:33:45;;;;;;;6.15;4.50;;;;;;;19.89;61.89;94349.23;1660299;86;21066;-60
2022/10/01 11:36:40;;;;;;;14.20;5.10;;;;;;;19.85;62.03;94352.94;1660027;86;21111;-59
2022/10/01 11:39:15;;;;;;;23.42;7.75;;;;;;;19.79;62.86;94352.22;1639320;86;21051;-60
2022/10/01 11:41:59;;;;;;;16.35;6.67;;;;;;;19.74;63.27;94342.47;1660008;86;21240;-60
2022/10/01 11:44:46;;;;;;;23.02;9.03;;;;;;;19.69;63.45;94328.66;1659830;86;21164;-60
2022/10/01 11:47:43;;;;;;;25.97;8.70;;;;;;;19.78;63.97;94326.94;1659645;85;21020;-61
2022/10/01 11:50:31;;;;;;;27.98;8.90;;;;;;;19.89;64.31;94318.52;1637451;86;21023;-59
2022/10/01 11:53:04;;;;;;;23.35;12.63;;;;;;;19.91;64.11;94308.97;1659981;86;21036;-62
2022/10/01 11:58:51;;;;;;;28.75;13.45;;;;;;;20.51;63.25;94309.16;1641295;85;21528;-60
2022/10/01 12:01:33;;;;;;;25.80;15.13;;;;;;;20.87;62.34;94311.39;1660211;85;21032;-61